sensor_id;sensor_type;location;lat;lon;timestamp;P1;durP1;ratioP1;P2;durP2;ratioP2
80157;SDS011;69485;59.138;37.926;2023-05-10T00:00:33;8.23;;;2.10;;
80157;SDS011;69485;59.138;37.926;2023-05-10T00:02:59;6.80;;;2.28;;
80157;SDS011;69485;59.138;37.926;2023-05-10T00:05:25;5.90;;;2.45;;
80157;SDS011;69485;59.138;37.926;2023-05-10T00:07:51;6.18;;;2.45;;
80157;SDS011;69485;59.138;37.926;2023-05-10T00:10:16;5.47;;;2.30;;
80157;SDS011;69485;59.138;37.926;2023-05-10T00:12:42;7.30;;;2.15;;
80157;SDS011;69485;59.138;37.926;2023-05-10T00:15:08;11.05;;;2.15;;
80157;SDS011;69485;59.138;37.926;2023-05-10T00:17:34;4.65;;;2.65;;
80157;SDS011;69485;59.138;37.926;2023-05-10T00:20:00;6.43;;;2.40;;
80157;SDS011;69485;59.138;37.926;2023-05-10T00:22:26;5.28;;;2.47;;
80157;SDS011;69485;59.138;37.926;2023-05-10T00:24:52;13.57;;;2.60;;
80157;SDS011;69485;59.138;37.926;2023-05-10T00:27:17;6.22;;;2.95;;
80157;SDS011;69485;59.138;37.926;2023-05-10T00:29:43;6.13;;;2.50;;
80157;SDS011;69485;59.138;37.926;2023-05-10T00:32:09;7.00;;;2.63;;
80157;SDS011;69485;59.138;37.926;2023-05-10T00:34:35;6.32;;;2.53;;
80157;SDS011;69485;59.138;37.926;2023-05-10T00:37:00;10.80;;;3.40;;
80157;SDS011;69485;59.138;37.926;2023-05-10T00:39:27;7.90;;;3.20;;
80157;SDS011;69485;59.138;37.926;2023-05-10T00:41:54;8.93;;;3.72;;
80157;SDS011;69485;59.138;37.926;2023-05-10T00:44:20;8.82;;;3.20;;
80157;SDS011;69485;59.138;37.926;2023-05-10T00:46:46;5.85;;;2.75;;
80157;SDS011;69485;59.138;37.926;2023-05-10T00:51:37;7.75;;;3.17;;
80157;SDS011;69485;59.138;37.926;2023-05-10T00:54:03;8.48;;;2.58;;
80157;SDS011;69485;59.138;37.926;2023-05-10T00:56:29;11.68;;;3.33;;
80157;SDS011;69485;59.138;37.926;2023-05-10T00:58:55;9.98;;;2.95;;
80157;SDS011;69485;59.138;37.926;2023-05-10T01:03:48;9.00;;;3.03;;
80157;SDS011;69485;59.138;37.926;2023-05-10T01:06:14;7.13;;;2.40;;
80157;SDS011;69485;59.138;37.926;2023-05-10T01:08:39;6.93;;;2.47;;
80157;SDS011;69485;59.138;37.926;2023-05-10T01:11:05;6.13;;;2.28;;
80157;SDS011;69485;59.138;37.926;2023-05-10T01:13:32;4.90;;;2.28;;
80157;SDS011;69485;59.138;37.926;2023-05-10T01:15:59;7.28;;;3.15;;
80157;SDS011;69485;59.138;37.926;2023-05-10T01:18:27;5.97;;;2.50;;
80157;SDS011;69485;59.138;37.926;2023-05-10T01:26:53;7.30;;;3.20;;
80157;SDS011;69485;59.138;37.926;2023-05-10T01:29:41;10.07;;;4.65;;
80157;SDS011;69485;59.138;37.926;2023-05-10T01:32:21;10.00;;;4.47;;
80157;SDS011;69485;59.138;37.926;2023-05-10T01:37:57;10.10;;;4.35;;
80157;SDS011;69485;59.138;37.926;2023-05-10T01:40:24;11.90;;;5.88;;
80157;SDS011;69485;59.138;37.926;2023-05-10T01:42:55;12.93;;;4.18;;
80157;SDS011;69485;59.138;37.926;2023-05-10T01:45:26;14.77;;;4.63;;
80157;SDS011;69485;59.138;37.926;2023-05-10T01:47:54;11.88;;;4.22;;
80157;SDS011;69485;59.138;37.926;2023-05-10T01:50:24;10.32;;;3.95;;
80157;SDS011;69485;59.138;37.926;2023-05-10T01:52:55;9.50;;;4.45;;
80157;SDS011;69485;59.138;37.926;2023-05-10T01:55:27;10.50;;;4.38;;
80157;SDS011;69485;59.138;37.926;2023-05-10T01:58:07;8.13;;;3.72;;
80157;SDS011;69485;59.138;37.926;2023-05-10T02:00:34;13.27;;;4.03;;
80157;SDS011;69485;59.138;37.926;2023-05-10T02:03:04;9.88;;;4.10;;
80157;SDS011;69485;59.138;37.926;2023-05-10T02:05:30;7.85;;;3.25;;
80157;SDS011;69485;59.138;37.926;2023-05-10T02:07:58;7.43;;;3.08;;
80157;SDS011;69485;59.138;37.926;2023-05-10T02:10:27;7.57;;;2.85;;
80157;SDS011;69485;59.138;37.926;2023-05-10T02:12:53;5.75;;;2.65;;
80157;SDS011;69485;59.138;37.926;2023-05-10T02:15:22;3.67;;;1.75;;
80157;SDS011;69485;59.138;37.926;2023-05-10T02:17:49;6.95;;;2.20;;
80157;SDS011;69485;59.138;37.926;2023-05-10T02:20:16;4.75;;;2.05;;
80157;SDS011;69485;59.138;37.926;2023-05-10T02:22:42;6.97;;;1.98;;
80157;SDS011;69485;59.138;37.926;2023-05-10T02:25:09;3.95;;;2.15;;
80157;SDS011;69485;59.138;37.926;2023-05-10T02:27:36;4.57;;;1.90;;
80157;SDS011;69485;59.138;37.926;2023-05-10T02:30:02;7.50;;;2.00;;
80157;SDS011;69485;59.138;37.926;2023-05-10T02:32:31;10.00;;;2.50;;
80157;SDS011;69485;59.138;37.926;2023-05-10T02:34:59;3.38;;;1.80;;
80157;SDS011;69485;59.138;37.926;2023-05-10T02:37:25;6.32;;;2.45;;
80157;SDS011;69485;59.138;37.926;2023-05-10T02:39:54;5.00;;;2.08;;
80157;SDS011;69485;59.138;37.926;2023-05-10T02:42:23;4.78;;;2.17;;
80157;SDS011;69485;59.138;37.926;2023-05-10T02:44:50;8.13;;;2.35;;
80157;SDS011;69485;59.138;37.926;2023-05-10T02:47:17;4.22;;;2.28;;
80157;SDS011;69485;59.138;37.926;2023-05-10T02:49:43;7.72;;;3.22;;
80157;SDS011;69485;59.138;37.926;2023-05-10T02:52:10;9.10;;;2.90;;
80157;SDS011;69485;59.138;37.926;2023-05-10T02:54:41;7.07;;;2.40;;
80157;SDS011;69485;59.138;37.926;2023-05-10T02:57:11;10.50;;;2.35;;
80157;SDS011;69485;59.138;37.926;2023-05-10T02:59:40;3.38;;;1.80;;
80157;SDS011;69485;59.138;37.926;2023-05-10T03:02:12;4.20;;;1.88;;
80157;SDS011;69485;59.138;37.926;2023-05-10T03:04:38;4.32;;;1.60;;
80157;SDS011;69485;59.138;37.926;2023-05-10T03:07:04;2.70;;;1.52;;
80157;SDS011;69485;59.138;37.926;2023-05-10T03:09:31;5.00;;;1.48;;
80157;SDS011;69485;59.138;37.926;2023-05-10T03:19:53;3.00;;;1.35;;
80157;SDS011;69485;59.138;37.926;2023-05-10T03:22:30;1.00;;;0.73;;
80157;SDS011;69485;59.138;37.926;2023-05-10T03:24:56;2.25;;;0.95;;
80157;SDS011;69485;59.138;37.926;2023-05-10T03:27:23;4.13;;;1.10;;
80157;SDS011;69485;59.138;37.926;2023-05-10T03:29:52;4.25;;;0.95;;
80157;SDS011;69485;59.138;37.926;2023-05-10T03:32:18;1.85;;;0.90;;
80157;SDS011;69485;59.138;37.926;2023-05-10T03:34:44;3.28;;;0.85;;
80157;SDS011;69485;59.138;37.926;2023-05-10T03:37:09;1.98;;;0.70;;
80157;SDS011;69485;59.138;37.926;2023-05-10T03:39:35;1.77;;;0.80;;
80157;SDS011;69485;59.138;37.926;2023-05-10T03:42:01;4.03;;;1.05;;
80157;SDS011;69485;59.138;37.926;2023-05-10T03:44:26;2.53;;;0.80;;
80157;SDS011;69485;59.138;37.926;2023-05-10T03:46:52;3.92;;;0.88;;
80157;SDS011;69485;59.138;37.926;2023-05-10T03:49:18;3.13;;;0.90;;
80157;SDS011;69485;59.138;37.926;2023-05-10T03:51:44;1.65;;;1.02;;
80157;SDS011;69485;59.138;37.926;2023-05-10T03:54:09;2.42;;;0.90;;
80157;SDS011;69485;59.138;37.926;2023-05-10T03:56:35;1.90;;;0.70;;
80157;SDS011;69485;59.138;37.926;2023-05-10T03:59:01;2.55;;;0.85;;
80157;SDS011;69485;59.138;37.926;2023-05-10T04:01:27;2.33;;;0.75;;
80157;SDS011;69485;59.138;37.926;2023-05-10T04:03:52;5.05;;;0.85;;
80157;SDS011;69485;59.138;37.926;2023-05-10T04:06:18;2.00;;;0.88;;
80157;SDS011;69485;59.138;37.926;2023-05-10T04:08:44;4.05;;;0.90;;
80157;SDS011;69485;59.138;37.926;2023-05-10T04:11:11;1.13;;;0.82;;
80157;SDS011;69485;59.138;37.926;2023-05-10T04:13:38;4.95;;;1.23;;
80157;SDS011;69485;59.138;37.926;2023-05-10T04:16:04;3.55;;;1.50;;
80157;SDS011;69485;59.138;37.926;2023-05-10T04:18:30;4.80;;;1.30;;
80157;SDS011;69485;59.138;37.926;2023-05-10T04:20:56;3.60;;;1.27;;
80157;SDS011;69485;59.138;37.926;2023-05-10T04:23:22;4.45;;;1.20;;
80157;SDS011;69485;59.138;37.926;2023-05-10T04:25:48;4.93;;;1.00;;
80157;SDS011;69485;59.138;37.926;2023-05-10T04:28:14;3.38;;;1.20;;
80157;SDS011;69485;59.138;37.926;2023-05-10T04:30:39;1.48;;;0.90;;
80157;SDS011;69485;59.138;37.926;2023-05-10T04:33:06;5.68;;;1.50;;
80157;SDS011;69485;59.138;37.926;2023-05-10T04:35:31;4.47;;;1.20;;
80157;SDS011;69485;59.138;37.926;2023-05-10T04:37:57;2.47;;;1.10;;
80157;SDS011;69485;59.138;37.926;2023-05-10T04:40:23;3.22;;;1.33;;
80157;SDS011;69485;59.138;37.926;2023-05-10T04:42:49;5.03;;;0.98;;
80157;SDS011;69485;59.138;37.926;2023-05-10T04:45:15;3.90;;;1.45;;
80157;SDS011;69485;59.138;37.926;2023-05-10T04:47:41;2.65;;;1.40;;
80157;SDS011;69485;59.138;37.926;2023-05-10T04:50:07;8.27;;;1.73;;
80157;SDS011;69485;59.138;37.926;2023-05-10T04:52:33;2.95;;;1.27;;
80157;SDS011;69485;59.138;37.926;2023-05-10T04:54:59;3.58;;;1.52;;
80157;SDS011;69485;59.138;37.926;2023-05-10T04:57:25;3.88;;;1.50;;
80157;SDS011;69485;59.138;37.926;2023-05-10T04:59:51;4.85;;;1.65;;
80157;SDS011;69485;59.138;37.926;2023-05-10T05:02:17;3.72;;;1.52;;
80157;SDS011;69485;59.138;37.926;2023-05-10T05:04:43;2.80;;;1.50;;
80157;SDS011;69485;59.138;37.926;2023-05-10T05:07:09;7.95;;;1.77;;
80157;SDS011;69485;59.138;37.926;2023-05-10T05:09:35;4.50;;;1.80;;
80157;SDS011;69485;59.138;37.926;2023-05-10T05:12:01;6.05;;;1.75;;
80157;SDS011;69485;59.138;37.926;2023-05-10T05:14:27;10.13;;;2.17;;
80157;SDS011;69485;59.138;37.926;2023-05-10T05:16:53;6.80;;;1.70;;
80157;SDS011;69485;59.138;37.926;2023-05-10T05:19:19;3.58;;;2.00;;
80157;SDS011;69485;59.138;37.926;2023-05-10T05:21:44;5.80;;;1.85;;
80157;SDS011;69485;59.138;37.926;2023-05-10T05:24:10;8.55;;;1.92;;
80157;SDS011;69485;59.138;37.926;2023-05-10T05:26:38;4.70;;;2.00;;
80157;SDS011;69485;59.138;37.926;2023-05-10T05:29:04;4.90;;;2.10;;
80157;SDS011;69485;59.138;37.926;2023-05-10T05:31:29;9.13;;;2.42;;
80157;SDS011;69485;59.138;37.926;2023-05-10T05:33:56;7.78;;;1.88;;
80157;SDS011;69485;59.138;37.926;2023-05-10T05:36:22;5.22;;;2.53;;
80157;SDS011;69485;59.138;37.926;2023-05-10T05:38:48;3.40;;;1.67;;
80157;SDS011;69485;59.138;37.926;2023-05-10T05:41:13;12.35;;;2.38;;
80157;SDS011;69485;59.138;37.926;2023-05-10T05:43:39;5.88;;;1.98;;
80157;SDS011;69485;59.138;37.926;2023-05-10T05:46:05;5.05;;;1.90;;
80157;SDS011;69485;59.138;37.926;2023-05-10T05:48:31;7.88;;;1.95;;
80157;SDS011;69485;59.138;37.926;2023-05-10T05:50:57;9.52;;;1.85;;
80157;SDS011;69485;59.138;37.926;2023-05-10T05:53:23;4.05;;;1.88;;
80157;SDS011;69485;59.138;37.926;2023-05-10T05:55:53;7.07;;;1.80;;
80157;SDS011;69485;59.138;37.926;2023-05-10T05:58:19;5.18;;;1.70;;
80157;SDS011;69485;59.138;37.926;2023-05-10T06:00:46;3.60;;;1.60;;
80157;SDS011;69485;59.138;37.926;2023-05-10T06:03:12;5.38;;;1.95;;
80157;SDS011;69485;59.138;37.926;2023-05-10T06:05:38;3.92;;;1.90;;
80157;SDS011;69485;59.138;37.926;2023-05-10T06:08:03;3.50;;;1.83;;
80157;SDS011;69485;59.138;37.926;2023-05-10T06:10:29;4.53;;;2.22;;
80157;SDS011;69485;59.138;37.926;2023-05-10T06:15:21;3.85;;;1.70;;
80157;SDS011;69485;59.138;37.926;2023-05-10T06:17:47;3.80;;;2.00;;
80157;SDS011;69485;59.138;37.926;2023-05-10T06:20:15;6.50;;;2.50;;
80157;SDS011;69485;59.138;37.926;2023-05-10T06:22:41;6.10;;;2.83;;
80157;SDS011;69485;59.138;37.926;2023-05-10T06:25:07;8.00;;;3.42;;
80157;SDS011;69485;59.138;37.926;2023-05-10T06:27:33;8.05;;;3.05;;
80157;SDS011;69485;59.138;37.926;2023-05-10T06:29:59;19.13;;;5.22;;
80157;SDS011;69485;59.138;37.926;2023-05-10T06:32:24;18.20;;;7.00;;
80157;SDS011;69485;59.138;37.926;2023-05-10T06:34:50;26.55;;;7.43;;
80157;SDS011;69485;59.138;37.926;2023-05-10T06:37:16;19.88;;;5.90;;
80157;SDS011;69485;59.138;37.926;2023-05-10T06:39:42;18.50;;;6.35;;
80157;SDS011;69485;59.138;37.926;2023-05-10T06:42:08;15.50;;;4.25;;
80157;SDS011;69485;59.138;37.926;2023-05-10T06:44:34;8.98;;;3.40;;
80157;SDS011;69485;59.138;37.926;2023-05-10T06:47:00;11.07;;;4.55;;
80157;SDS011;69485;59.138;37.926;2023-05-10T06:49:25;8.52;;;4.00;;
80157;SDS011;69485;59.138;37.926;2023-05-10T06:51:51;10.65;;;3.95;;
80157;SDS011;69485;59.138;37.926;2023-05-10T06:54:17;12.68;;;4.15;;
80157;SDS011;69485;59.138;37.926;2023-05-10T06:56:43;9.77;;;3.40;;
80157;SDS011;69485;59.138;37.926;2023-05-10T06:59:09;6.22;;;3.08;;
80157;SDS011;69485;59.138;37.926;2023-05-10T07:01:35;7.03;;;2.60;;
80157;SDS011;69485;59.138;37.926;2023-05-10T07:04:00;5.75;;;2.25;;
80157;SDS011;69485;59.138;37.926;2023-05-10T07:06:26;6.07;;;2.05;;
80157;SDS011;69485;59.138;37.926;2023-05-10T07:11:18;4.32;;;1.42;;
80157;SDS011;69485;59.138;37.926;2023-05-10T07:13:44;4.90;;;2.10;;
80157;SDS011;69485;59.138;37.926;2023-05-10T07:16:11;4.82;;;1.63;;
80157;SDS011;69485;59.138;37.926;2023-05-10T07:18:37;2.78;;;1.30;;
80157;SDS011;69485;59.138;37.926;2023-05-10T07:21:03;4.82;;;1.30;;
80157;SDS011;69485;59.138;37.926;2023-05-10T07:23:28;2.58;;;1.20;;
80157;SDS011;69485;59.138;37.926;2023-05-10T07:25:55;3.13;;;1.00;;
80157;SDS011;69485;59.138;37.926;2023-05-10T07:28:22;2.33;;;1.08;;
80157;SDS011;69485;59.138;37.926;2023-05-10T07:30:48;2.33;;;0.90;;
80157;SDS011;69485;59.138;37.926;2023-05-10T07:33:14;1.30;;;0.90;;
80157;SDS011;69485;59.138;37.926;2023-05-10T07:35:40;2.42;;;1.00;;
80157;SDS011;69485;59.138;37.926;2023-05-10T07:38:06;2.25;;;1.10;;
80157;SDS011;69485;59.138;37.926;2023-05-10T07:40:31;3.72;;;1.35;;
80157;SDS011;69485;59.138;37.926;2023-05-10T07:42:57;3.63;;;1.67;;
80157;SDS011;69485;59.138;37.926;2023-05-10T07:45:23;3.92;;;1.77;;
80157;SDS011;69485;59.138;37.926;2023-05-10T07:47:49;3.35;;;1.80;;
80157;SDS011;69485;59.138;37.926;2023-05-10T07:50:16;2.75;;;1.35;;
80157;SDS011;69485;59.138;37.926;2023-05-10T07:52:41;1.33;;;0.80;;
80157;SDS011;69485;59.138;37.926;2023-05-10T07:55:07;1.30;;;0.77;;
80157;SDS011;69485;59.138;37.926;2023-05-10T07:57:34;2.90;;;1.10;;
80157;SDS011;69485;59.138;37.926;2023-05-10T08:00:00;2.35;;;1.02;;
80157;SDS011;69485;59.138;37.926;2023-05-10T08:02:26;1.95;;;0.70;;
80157;SDS011;69485;59.138;37.926;2023-05-10T08:04:51;1.60;;;0.90;;
80157;SDS011;69485;59.138;37.926;2023-05-10T08:07:17;2.03;;;0.90;;
80157;SDS011;69485;59.138;37.926;2023-05-10T08:09:43;1.88;;;1.00;;
80157;SDS011;69485;59.138;37.926;2023-05-10T08:12:08;3.10;;;1.77;;
80157;SDS011;69485;59.138;37.926;2023-05-10T08:14:34;3.60;;;2.17;;
80157;SDS011;69485;59.138;37.926;2023-05-10T08:17:02;1.48;;;0.98;;
80157;SDS011;69485;59.138;37.926;2023-05-10T08:19:29;6.32;;;2.97;;
80157;SDS011;69485;59.138;37.926;2023-05-10T08:21:55;7.03;;;2.67;;
80157;SDS011;69485;59.138;37.926;2023-05-10T08:24:24;3.70;;;1.60;;
80157;SDS011;69485;59.138;37.926;2023-05-10T08:26:49;2.20;;;0.98;;
80157;SDS011;69485;59.138;37.926;2023-05-10T08:29:15;2.15;;;1.08;;
80157;SDS011;69485;59.138;37.926;2023-05-10T08:31:41;2.97;;;1.13;;
80157;SDS011;69485;59.138;37.926;2023-05-10T08:34:06;2.30;;;1.45;;
80157;SDS011;69485;59.138;37.926;2023-05-10T08:36:32;6.53;;;1.85;;
80157;SDS011;69485;59.138;37.926;2023-05-10T08:38:58;5.22;;;1.52;;
80157;SDS011;69485;59.138;37.926;2023-05-10T08:41:24;1.15;;;0.75;;
80157;SDS011;69485;59.138;37.926;2023-05-10T08:43:58;2.70;;;1.30;;
80157;SDS011;69485;59.138;37.926;2023-05-10T08:46:23;4.55;;;1.50;;
80157;SDS011;69485;59.138;37.926;2023-05-10T08:48:50;5.60;;;1.10;;
80157;SDS011;69485;59.138;37.926;2023-05-10T08:51:17;3.15;;;1.42;;
80157;SDS011;69485;59.138;37.926;2023-05-10T08:53:45;2.88;;;0.93;;
80157;SDS011;69485;59.138;37.926;2023-05-10T08:56:11;3.38;;;1.38;;
80157;SDS011;69485;59.138;37.926;2023-05-10T08:58:37;2.08;;;1.00;;
80157;SDS011;69485;59.138;37.926;2023-05-10T09:03:29;2.65;;;1.15;;
80157;SDS011;69485;59.138;37.926;2023-05-10T09:05:56;3.75;;;1.23;;
80157;SDS011;69485;59.138;37.926;2023-05-10T09:08:25;2.20;;;1.20;;
80157;SDS011;69485;59.138;37.926;2023-05-10T09:10:51;2.67;;;1.00;;
80157;SDS011;69485;59.138;37.926;2023-05-10T09:13:17;1.90;;;1.00;;
80157;SDS011;69485;59.138;37.926;2023-05-10T09:15:44;1.98;;;0.90;;
80157;SDS011;69485;59.138;37.926;2023-05-10T09:18:11;1.83;;;0.98;;
80157;SDS011;69485;59.138;37.926;2023-05-10T09:20:37;5.38;;;0.85;;
80157;SDS011;69485;59.138;37.926;2023-05-10T09:23:03;3.13;;;1.23;;
80157;SDS011;69485;59.138;37.926;2023-05-10T09:25:29;2.97;;;0.90;;
80157;SDS011;69485;59.138;37.926;2023-05-10T09:27:55;3.22;;;1.08;;
80157;SDS011;69485;59.138;37.926;2023-05-10T09:30:25;2.22;;;1.20;;
80157;SDS011;69485;59.138;37.926;2023-05-10T09:32:53;2.30;;;0.73;;
80157;SDS011;69485;59.138;37.926;2023-05-10T09:35:20;2.58;;;0.77;;
80157;SDS011;69485;59.138;37.926;2023-05-10T09:37:47;2.45;;;1.00;;
80157;SDS011;69485;59.138;37.926;2023-05-10T09:45:40;3.33;;;0.98;;
80157;SDS011;69485;59.138;37.926;2023-05-10T09:48:06;3.22;;;1.17;;
80157;SDS011;69485;59.138;37.926;2023-05-10T09:50:32;1.58;;;0.70;;
80157;SDS011;69485;59.138;37.926;2023-05-10T09:53:00;1.48;;;0.80;;
80157;SDS011;69485;59.138;37.926;2023-05-10T09:55:38;5.38;;;1.20;;
80157;SDS011;69485;59.138;37.926;2023-05-10T09:58:04;1.85;;;0.95;;
80157;SDS011;69485;59.138;37.926;2023-05-10T10:00:36;4.50;;;1.33;;
80157;SDS011;69485;59.138;37.926;2023-05-10T10:03:03;2.75;;;1.10;;
80157;SDS011;69485;59.138;37.926;2023-05-10T10:05:32;1.48;;;0.85;;
80157;SDS011;69485;59.138;37.926;2023-05-10T10:08:18;4.10;;;0.80;;
80157;SDS011;69485;59.138;37.926;2023-05-10T10:10:45;2.85;;;1.08;;
80157;SDS011;69485;59.138;37.926;2023-05-10T10:13:12;3.50;;;1.95;;
80157;SDS011;69485;59.138;37.926;2023-05-10T10:15:38;4.00;;;1.08;;
80157;SDS011;69485;59.138;37.926;2023-05-10T10:18:05;1.92;;;0.80;;
80157;SDS011;69485;59.138;37.926;2023-05-10T10:20:31;2.05;;;0.98;;
80157;SDS011;69485;59.138;37.926;2023-05-10T10:22:57;1.67;;;0.90;;
80157;SDS011;69485;59.138;37.926;2023-05-10T10:25:22;3.50;;;1.00;;
80157;SDS011;69485;59.138;37.926;2023-05-10T10:30:28;1.13;;;0.80;;
80157;SDS011;69485;59.138;37.926;2023-05-10T10:35:43;3.28;;;1.10;;
80157;SDS011;69485;59.138;37.926;2023-05-10T10:38:12;1.55;;;1.00;;
80157;SDS011;69485;59.138;37.926;2023-05-10T10:40:38;1.77;;;0.93;;
80157;SDS011;69485;59.138;37.926;2023-05-10T10:43:23;1.35;;;1.05;;
80157;SDS011;69485;59.138;37.926;2023-05-10T10:48:34;2.85;;;1.05;;
80157;SDS011;69485;59.138;37.926;2023-05-10T10:51:02;1.63;;;0.75;;
80157;SDS011;69485;59.138;37.926;2023-05-10T10:53:28;1.20;;;0.80;;
80157;SDS011;69485;59.138;37.926;2023-05-10T10:58:51;2.85;;;0.98;;
80157;SDS011;69485;59.138;37.926;2023-05-10T11:01:19;2.05;;;0.80;;
80157;SDS011;69485;59.138;37.926;2023-05-10T11:06:33;1.80;;;0.90;;
80157;SDS011;69485;59.138;37.926;2023-05-10T11:09:04;1.70;;;1.00;;
80157;SDS011;69485;59.138;37.926;2023-05-10T11:11:31;2.95;;;0.93;;
80157;SDS011;69485;59.138;37.926;2023-05-10T11:14:02;1.30;;;0.80;;
80157;SDS011;69485;59.138;37.926;2023-05-10T11:16:28;1.17;;;0.80;;
80157;SDS011;69485;59.138;37.926;2023-05-10T11:19:13;2.10;;;1.05;;
80157;SDS011;69485;59.138;37.926;2023-05-10T11:24:15;1.98;;;1.00;;
80157;SDS011;69485;59.138;37.926;2023-05-10T11:26:42;2.35;;;1.00;;
80157;SDS011;69485;59.138;37.926;2023-05-10T11:29:08;2.67;;;0.90;;
80157;SDS011;69485;59.138;37.926;2023-05-10T11:31:34;1.58;;;1.13;;
80157;SDS011;69485;59.138;37.926;2023-05-10T11:34:01;2.30;;;1.05;;
80157;SDS011;69485;59.138;37.926;2023-05-10T11:36:34;3.47;;;1.10;;
80157;SDS011;69485;59.138;37.926;2023-05-10T11:39:00;2.53;;;1.05;;
80157;SDS011;69485;59.138;37.926;2023-05-10T11:41:27;3.08;;;1.17;;
80157;SDS011;69485;59.138;37.926;2023-05-10T11:43:54;1.58;;;1.00;;
80157;SDS011;69485;59.138;37.926;2023-05-10T11:46:21;1.00;;;0.90;;
80157;SDS011;69485;59.138;37.926;2023-05-10T11:48:52;3.60;;;1.10;;
80157;SDS011;69485;59.138;37.926;2023-05-10T11:51:20;1.85;;;1.00;;
80157;SDS011;69485;59.138;37.926;2023-05-10T11:53:46;2.22;;;1.00;;
80157;SDS011;69485;59.138;37.926;2023-05-10T11:56:12;1.95;;;1.33;;
80157;SDS011;69485;59.138;37.926;2023-05-10T11:58:38;1.48;;;0.98;;
80157;SDS011;69485;59.138;37.926;2023-05-10T12:01:05;2.33;;;1.02;;
80157;SDS011;69485;59.138;37.926;2023-05-10T12:03:32;1.40;;;0.93;;
80157;SDS011;69485;59.138;37.926;2023-05-10T12:05:58;2.08;;;1.10;;
80157;SDS011;69485;59.138;37.926;2023-05-10T12:08:25;1.20;;;0.90;;
80157;SDS011;69485;59.138;37.926;2023-05-10T12:10:52;1.85;;;1.15;;
80157;SDS011;69485;59.138;37.926;2023-05-10T12:13:19;1.50;;;1.00;;
80157;SDS011;69485;59.138;37.926;2023-05-10T12:15:46;2.30;;;1.23;;
80157;SDS011;69485;59.138;37.926;2023-05-10T12:20:38;3.25;;;1.15;;
80157;SDS011;69485;59.138;37.926;2023-05-10T12:23:04;2.15;;;1.52;;
80157;SDS011;69485;59.138;37.926;2023-05-10T12:25:35;6.15;;;1.30;;
80157;SDS011;69485;59.138;37.926;2023-05-10T12:28:05;1.70;;;1.17;;
80157;SDS011;69485;59.138;37.926;2023-05-10T12:30:33;2.55;;;1.08;;
80157;SDS011;69485;59.138;37.926;2023-05-10T12:33:00;1.48;;;1.38;;
80157;SDS011;69485;59.138;37.926;2023-05-10T12:35:29;2.78;;;1.10;;
80157;SDS011;69485;59.138;37.926;2023-05-10T12:37:57;1.63;;;1.10;;
80157;SDS011;69485;59.138;37.926;2023-05-10T12:40:23;2.50;;;1.00;;
80157;SDS011;69485;59.138;37.926;2023-05-10T12:42:49;3.85;;;1.25;;
80157;SDS011;69485;59.138;37.926;2023-05-10T12:47:40;1.80;;;1.10;;
80157;SDS011;69485;59.138;37.926;2023-05-10T12:52:32;2.33;;;1.23;;
80157;SDS011;69485;59.138;37.926;2023-05-10T12:54:59;1.60;;;1.27;;
80157;SDS011;69485;59.138;37.926;2023-05-10T12:57:26;6.45;;;1.63;;
80157;SDS011;69485;59.138;37.926;2023-05-10T12:59:54;1.58;;;0.85;;
80157;SDS011;69485;59.138;37.926;2023-05-10T13:02:20;2.30;;;1.40;;
80157;SDS011;69485;59.138;37.926;2023-05-10T13:04:47;2.60;;;1.00;;
80157;SDS011;69485;59.138;37.926;2023-05-10T13:09:39;1.95;;;1.02;;
80157;SDS011;69485;59.138;37.926;2023-05-10T13:14:31;2.03;;;1.25;;
80157;SDS011;69485;59.138;37.926;2023-05-10T13:16:56;2.50;;;1.38;;
80157;SDS011;69485;59.138;37.926;2023-05-10T13:19:22;4.43;;;1.40;;
80157;SDS011;69485;59.138;37.926;2023-05-10T13:24:14;1.70;;;1.00;;
80157;SDS011;69485;59.138;37.926;2023-05-10T13:29:05;2.70;;;1.40;;
80157;SDS011;69485;59.138;37.926;2023-05-10T13:33:57;2.03;;;1.42;;
80157;SDS011;69485;59.138;37.926;2023-05-10T13:36:22;3.97;;;1.50;;
80157;SDS011;69485;59.138;37.926;2023-05-10T13:38:48;4.03;;;1.73;;
80157;SDS011;69485;59.138;37.926;2023-05-10T13:43:40;1.65;;;1.27;;
80157;SDS011;69485;59.138;37.926;2023-05-10T13:46:06;2.78;;;1.70;;
80157;SDS011;69485;59.138;37.926;2023-05-10T13:48:32;2.38;;;1.20;;
80157;SDS011;69485;59.138;37.926;2023-05-10T13:50:58;2.08;;;1.23;;
80157;SDS011;69485;59.138;37.926;2023-05-10T13:53:24;6.13;;;1.27;;
80157;SDS011;69485;59.138;37.926;2023-05-10T13:55:50;3.40;;;1.73;;
80157;SDS011;69485;59.138;37.926;2023-05-10T13:58:15;2.35;;;1.52;;
80157;SDS011;69485;59.138;37.926;2023-05-10T14:00:41;2.03;;;1.52;;
80157;SDS011;69485;59.138;37.926;2023-05-10T14:03:07;2.22;;;1.10;;
80157;SDS011;69485;59.138;37.926;2023-05-10T14:05:34;2.92;;;1.70;;
80157;SDS011;69485;59.138;37.926;2023-05-10T14:08:00;1.95;;;1.50;;
80157;SDS011;69485;59.138;37.926;2023-05-10T14:10:26;3.47;;;1.27;;
80157;SDS011;69485;59.138;37.926;2023-05-10T14:12:52;2.30;;;1.30;;
80157;SDS011;69485;59.138;37.926;2023-05-10T14:15:18;4.28;;;1.50;;
80157;SDS011;69485;59.138;37.926;2023-05-10T14:17:44;2.83;;;1.52;;
80157;SDS011;69485;59.138;37.926;2023-05-10T14:20:10;2.45;;;1.50;;
80157;SDS011;69485;59.138;37.926;2023-05-10T14:22:36;3.85;;;1.50;;
80157;SDS011;69485;59.138;37.926;2023-05-10T14:25:02;4.35;;;1.73;;
80157;SDS011;69485;59.138;37.926;2023-05-10T14:27:28;3.33;;;1.45;;
80157;SDS011;69485;59.138;37.926;2023-05-10T14:29:53;6.03;;;1.40;;
80157;SDS011;69485;59.138;37.926;2023-05-10T14:32:19;1.80;;;1.23;;
80157;SDS011;69485;59.138;37.926;2023-05-10T14:34:45;1.65;;;1.30;;
80157;SDS011;69485;59.138;37.926;2023-05-10T14:37:11;3.17;;;1.23;;
80157;SDS011;69485;59.138;37.926;2023-05-10T14:39:37;2.45;;;1.20;;
80157;SDS011;69485;59.138;37.926;2023-05-10T14:42:23;1.73;;;1.20;;
80157;SDS011;69485;59.138;37.926;2023-05-10T14:47:14;3.67;;;1.30;;
80157;SDS011;69485;59.138;37.926;2023-05-10T14:52:07;4.68;;;2.00;;
80157;SDS011;69485;59.138;37.926;2023-05-10T14:57:02;2.70;;;1.20;;
80157;SDS011;69485;59.138;37.926;2023-05-10T15:01:54;1.80;;;1.30;;
80157;SDS011;69485;59.138;37.926;2023-05-10T15:06:45;2.15;;;1.55;;
80157;SDS011;69485;59.138;37.926;2023-05-10T15:11:36;2.85;;;1.67;;
80157;SDS011;69485;59.138;37.926;2023-05-10T15:16:28;1.95;;;1.50;;
80157;SDS011;69485;59.138;37.926;2023-05-10T15:19:06;6.05;;;2.03;;
80157;SDS011;69485;59.138;37.926;2023-05-10T15:24:05;3.28;;;1.40;;
80157;SDS011;69485;59.138;37.926;2023-05-10T15:26:31;2.03;;;1.48;;
80157;SDS011;69485;59.138;37.926;2023-05-10T15:28:57;3.28;;;1.85;;
80157;SDS011;69485;59.138;37.926;2023-05-10T15:31:24;2.88;;;1.90;;
80157;SDS011;69485;59.138;37.926;2023-05-10T15:33:50;3.22;;;2.00;;
80157;SDS011;69485;59.138;37.926;2023-05-10T15:36:16;3.33;;;1.50;;
80157;SDS011;69485;59.138;37.926;2023-05-10T15:38:43;4.18;;;1.50;;
80157;SDS011;69485;59.138;37.926;2023-05-10T15:41:09;2.70;;;1.70;;
80157;SDS011;69485;59.138;37.926;2023-05-10T15:43:35;4.88;;;1.70;;
80157;SDS011;69485;59.138;37.926;2023-05-10T15:46:02;4.13;;;2.00;;
80157;SDS011;69485;59.138;37.926;2023-05-10T15:48:28;4.65;;;1.55;;
80157;SDS011;69485;59.138;37.926;2023-05-10T15:50:57;4.43;;;2.35;;
80157;SDS011;69485;59.138;37.926;2023-05-10T15:53:23;4.15;;;2.00;;
80157;SDS011;69485;59.138;37.926;2023-05-10T15:55:48;4.68;;;1.70;;
80157;SDS011;69485;59.138;37.926;2023-05-10T15:58:14;2.42;;;1.63;;
80157;SDS011;69485;59.138;37.926;2023-05-10T16:00:40;2.80;;;1.58;;
80157;SDS011;69485;59.138;37.926;2023-05-10T16:03:05;2.15;;;1.33;;